Time;durP1;ratioP1;P1;durP2;ratioP2;P2;SDS_P1;SDS_P2;PMS_P1;PMS_P2;Temp;Humidity;BMP_temperature;BMP_pressure;BME280_temperature;BME280_humidity;BME280_pressure;Samples;Min_cycle;Max_cycle;Signal;HPM_P1;HPM_P2
2023/11/13 00:02:10;;;;;;;6.70;5.20;;;8.50;78.50;;;;;;4916567;29;20127;-77
2023/11/13 00:04:36;;;;;;;7.32;5.63;;;8.50;78.40;;;;;;4935980;29;20473;-77
2023/11/13 00:07:03;;;;;;;7.38;5.57;;;8.50;78.40;;;;;;4904401;29;20036;-77
2023/11/13 00:09:29;;;;;;;7.28;5.78;;;8.50;78.50;;;;;;4904942;29;20079;-77
2023/11/13 00:11:55;;;;;;;7.22;5.40;;;8.50;78.50;;;;;;4903810;29;20046;-77
2023/11/13 00:14:21;;;;;;;7.78;5.50;;;8.50;78.50;;;;;;4919588;29;20031;-77
2023/11/13 00:16:48;;;;;;;7.05;5.47;;;8.50;78.50;;;;;;4919558;29;20028;-77
2023/11/13 00:19:14;;;;;;;5.88;4.88;;;8.50;78.50;;;;;;4936295;29;20044;-77
2023/11/13 00:21:40;;;;;;;7.10;5.55;;;8.50;78.50;;;;;;4920183;29;20130;-77
2023/11/13 00:24:06;;;;;;;6.97;5.53;;;8.50;78.50;;;;;;4904931;29;20468;-77
2023/11/13 00:26:32;;;;;;;7.25;5.45;;;8.40;78.50;;;;;;4905412;29;20046;-77
2023/11/13 00:28:58;;;;;;;6.63;5.25;;;8.40;78.50;;;;;;4919474;29;20408;-77
2023/11/13 00:31:24;;;;;;;6.63;5.00;;;8.40;78.50;;;;;;4903401;29;20036;-77
2023/11/13 00:33:49;;;;;;;7.03;5.38;;;8.50;78.50;;;;;;4903653;29;20035;-77
2023/11/13 00:36:16;;;;;;;6.35;4.68;;;8.40;78.50;;;;;;4919348;29;20040;-77
2023/11/13 00:38:42;;;;;;;6.45;5.18;;;8.40;78.50;;;;;;4919287;29;20111;-77
2023/11/13 00:41:11;;;;;;;7.75;5.07;;;8.40;78.50;;;;;;4919105;29;20114;-77
2023/11/13 00:43:39;;;;;;;6.90;5.22;;;8.50;78.60;;;;;;4936164;29;20039;-77
2023/11/13 00:46:06;;;;;;;7.03;5.35;;;8.40;78.50;;;;;;4918975;29;20079;-77
2023/11/13 00:48:32;;;;;;;7.15;5.07;;;8.40;78.50;;;;;;4918773;29;20036;-77
2023/11/13 00:50:58;;;;;;;6.88;5.57;;;8.40;78.60;;;;;;4918963;29;20035;-77
2023/11/13 00:53:24;;;;;;;6.72;5.18;;;8.40;78.50;;;;;;4919184;29;20373;-77
2023/11/13 00:55:51;;;;;;;6.45;5.25;;;8.40;78.50;;;;;;4919262;29;20115;-77
2023/11/13 00:58:17;;;;;;;6.43;5.18;;;8.40;78.60;;;;;;4888049;29;20115;-77
2023/11/13 01:00:44;;;;;;;6.28;4.95;;;8.40;78.60;;;;;;4935882;29;20032;-77
2023/11/13 01:03:10;;;;;;;6.63;5.13;;;8.40;78.50;;;;;;4918832;29;20079;-77
2023/11/13 01:05:35;;;;;;;7.70;5.18;;;8.40;78.60;;;;;;4887782;29;20066;-78
2023/11/13 01:08:03;;;;;;;6.10;4.78;;;8.40;78.50;;;;;;4903717;29;20035;-77
2023/11/13 01:10:29;;;;;;;6.82;4.82;;;8.40;78.60;;;;;;4922575;29;20075;-77
2023/11/13 01:12:55;;;;;;;6.00;4.70;;;8.40;78.50;;;;;;4891383;29;20036;-77
2023/11/13 01:15:21;;;;;;;5.93;4.72;;;8.40;78.50;;;;;;4891561;29;20035;-77
2023/11/13 01:17:48;;;;;;;6.53;4.95;;;8.40;78.60;;;;;;4922547;29;20040;-77
2023/11/13 01:20:14;;;;;;;7.28;5.07;;;8.30;78.50;;;;;;4939518;29;20102;-77
2023/11/13 01:22:40;;;;;;;5.50;4.30;;;8.30;78.50;;;;;;4922679;29;20063;-77
2023/11/13 01:25:06;;;;;;;6.40;4.78;;;8.30;78.60;;;;;;4907077;29;20040;-78
2023/11/13 01:27:32;;;;;;;6.22;5.05;;;8.30;78.50;;;;;;4891280;29;20053;-76
2023/11/13 01:29:57;;;;;;;6.35;4.90;;;8.30;78.50;;;;;;4922984;29;20032;-77
2023/11/13 01:32:24;;;;;;;6.70;5.35;;;8.30;78.60;;;;;;4922162;29;20040;-77
2023/11/13 01:34:49;;;;;;;6.43;5.10;;;8.30;78.60;;;;;;4906576;29;20499;-77
2023/11/13 01:37:15;;;;;;;6.15;4.57;;;8.30;78.60;;;;;;4922049;29;20039;-78
2023/11/13 01:39:41;;;;;;;6.72;5.25;;;8.30;78.50;;;;;;4922658;29;20087;-77
2023/11/13 01:42:07;;;;;;;6.20;4.63;;;8.30;78.60;;;;;;4922045;29;20485;-77
2023/11/13 01:44:33;;;;;;;6.45;4.72;;;8.30;78.60;;;;;;4922259;29;20049;-77
2023/11/13 01:46:59;;;;;;;6.28;4.85;;;8.30;78.60;;;;;;4906841;29;20433;-77
2023/11/13 01:49:25;;;;;;;5.97;4.70;;;8.30;78.60;;;;;;4906234;29;20448;-77
2023/11/13 01:51:52;;;;;;;6.10;4.72;;;8.30;78.60;;;;;;4922194;29;20036;-77
2023/11/13 01:54:22;;;;;;;6.70;5.13;;;8.30;78.60;;;;;;4938935;29;20031;-77
2023/11/13 01:56:48;;;;;;;5.82;4.63;;;8.20;78.50;;;;;;4921879;29;20016;-76
2023/11/13 01:59:15;;;;;;;7.07;5.07;;;8.30;78.60;;;;;;4905887;29;20051;-76
2023/11/13 02:01:41;;;;;;;6.00;4.68;;;8.30;78.60;;;;;;4921818;29;20036;-76
2023/11/13 02:04:08;;;;;;;6.38;4.82;;;8.20;78.50;;;;;;4890556;29;20059;-77
2023/11/13 02:06:34;;;;;;;6.63;5.00;;;8.30;78.70;;;;;;4921902;29;20036;-78
2023/11/13 02:08:59;;;;;;;6.80;4.97;;;8.20;78.50;;;;;;4921629;29;20046;-77
2023/11/13 02:11:26;;;;;;;6.07;4.72;;;8.20;78.60;;;;;;4908627;29;20044;-77
2023/11/13 02:13:53;;;;;;;5.65;4.22;;;8.20;78.50;;;;;;4925966;29;20051;-77
2023/11/13 02:16:20;;;;;;;5.40;4.45;;;8.20;78.60;;;;;;4891677;29;20127;-78
2023/11/13 02:18:45;;;;;;;5.78;4.45;;;8.20;78.50;;;;;;4905900;29;20032;-77
2023/11/13 02:21:12;;;;;;;6.78;5.03;;;8.20;78.50;;;;;;4920159;29;20024;-77
2023/11/13 02:23:38;;;;;;;6.65;4.80;;;8.20;78.60;;;;;;4890833;29;20047;-77
2023/11/13 02:26:16;;;;;;;6.20;4.53;;;8.20;78.60;;;;;;4906718;29;20039;-77
2023/11/13 02:28:42;;;;;;;6.28;4.68;;;8.20;78.60;;;;;;4921545;29;20036;-77
2023/11/13 02:31:09;;;;;;;6.75;5.13;;;8.20;78.60;;;;;;4938214;29;20032;-77
2023/11/13 02:33:34;;;;;;;6.63;4.97;;;8.20;78.60;;;;;;4905467;29;20035;-77
2023/11/13 02:36:00;;;;;;;6.05;4.68;;;8.20;78.60;;;;;;4921224;29;20035;-77
2023/11/13 02:38:26;;;;;;;5.90;4.65;;;8.20;78.60;;;;;;4905249;29;20495;-77
2023/11/13 02:40:52;;;;;;;5.82;4.60;;;8.20;78.60;;;;;;4889947;29;20180;-77
2023/11/13 02:43:18;;;;;;;6.35;4.88;;;8.20;78.60;;;;;;4920763;29;20044;-77
2023/11/13 02:45:44;;;;;;;7.40;5.40;;;8.20;78.50;;;;;;4905065;29;20036;-77
2023/11/13 02:48:09;;;;;;;6.35;4.93;;;8.20;78.60;;;;;;4920821;29;20552;-77
2023/11/13 02:50:35;;;;;;;6.60;4.75;;;8.20;78.60;;;;;;4905209;29;20381;-78
2023/11/13 02:53:01;;;;;;;6.22;4.70;;;8.20;78.60;;;;;;4905187;29;20062;-77
2023/11/13 02:55:27;;;;;;;6.00;4.80;;;8.20;78.60;;;;;;4920689;29;20485;-77
2023/11/13 02:57:54;;;;;;;5.45;4.53;;;8.20;78.60;;;;;;4921303;29;20075;-77
2023/11/13 03:00:20;;;;;;;5.95;4.72;;;8.20;78.60;;;;;;4904932;29;20055;-77
2023/11/13 03:02:47;;;;;;;6.60;5.07;;;8.20;78.60;;;;;;4920741;29;20056;-78
2023/11/13 03:05:12;;;;;;;7.07;5.25;;;8.20;78.60;;;;;;4889701;29;20046;-78
2023/11/13 03:07:38;;;;;;;6.00;4.85;;;8.20;78.60;;;;;;4889461;29;20036;-78
2023/11/13 03:10:05;;;;;;;6.88;5.32;;;8.20;78.60;;;;;;4921072;29;20028;-77
2023/11/13 03:12:31;;;;;;;6.35;5.10;;;8.20;78.60;;;;;;4904794;29;20059;-77
2023/11/13 03:14:57;;;;;;;6.45;4.85;;;8.20;78.60;;;;;;4937618;29;20055;-77
2023/11/13 03:17:23;;;;;;;6.80;5.00;;;8.20;78.60;;;;;;4904635;29;20118;-77
2023/11/13 03:19:49;;;;;;;6.50;5.03;;;8.20;78.60;;;;;;4920380;29;20161;-77
2023/11/13 03:22:15;;;;;;;6.18;4.80;;;8.20;78.60;;;;;;4920442;29;20055;-77
2023/11/13 03:24:41;;;;;;;6.70;5.20;;;8.20;78.60;;;;;;4937229;29;20039;-78
2023/11/13 03:27:07;;;;;;;6.20;4.85;;;8.20;78.60;;;;;;4905221;29;20599;-77
2023/11/13 03:29:33;;;;;;;7.38;5.43;;;8.20;78.60;;;;;;4904220;29;20043;-77
2023/11/13 03:31:59;;;;;;;6.65;4.70;;;8.20;78.60;;;;;;4920018;29;20094;-77
2023/11/13 03:34:24;;;;;;;6.15;4.82;;;8.20;78.60;;;;;;4904150;29;20031;-77
2023/11/13 03:36:50;;;;;;;6.30;4.80;;;8.20;78.60;;;;;;4904515;29;20042;-78
2023/11/13 03:39:16;;;;;;;6.80;5.05;;;8.20;78.60;;;;;;4888483;29;20176;-77
2023/11/13 03:41:42;;;;;;;5.75;4.38;;;8.20;78.60;;;;;;4904006;29;20040;-77
2023/11/13 03:44:08;;;;;;;6.45;4.82;;;8.30;78.70;;;;;;4903920;29;20036;-78
2023/11/13 03:46:34;;;;;;;6.07;4.47;;;8.20;78.60;;;;;;4919400;29;20028;-77
2023/11/13 03:49:00;;;;;;;5.30;4.28;;;8.20;78.60;;;;;;4904123;29;20066;-77
2023/11/13 03:51:26;;;;;;;6.00;4.57;;;8.30;78.70;;;;;;4903993;29;20138;-77
2023/11/13 03:53:53;;;;;;;5.10;4.05;;;8.20;78.60;;;;;;4904547;29;20036;-77
2023/11/13 03:56:23;;;;;;;5.45;4.47;;;8.30;78.70;;;;;;4937325;29;20039;-77
2023/11/13 03:58:49;;;;;;;6.28;4.63;;;8.30;78.70;;;;;;4919900;29;20032;-77
2023/11/13 04:01:16;;;;;;;5.57;4.45;;;8.30;78.60;;;;;;4919353;29;20052;-77
2023/11/13 04:03:42;;;;;;;5.88;4.63;;;8.30;78.70;;;;;;4916641;29;20048;-77
2023/11/13 04:06:09;;;;;;;6.07;4.30;;;8.30;78.70;;;;;;4917748;29;20032;-77
2023/11/13 04:08:35;;;;;;;6.35;4.72;;;8.30;78.70;;;;;;4916312;29;20042;-77
2023/11/13 04:11:04;;;;;;;5.93;4.50;;;8.30;78.70;;;;;;4916376;29;20028;-77
2023/11/13 04:13:31;;;;;;;5.43;4.30;;;8.30;78.70;;;;;;4886201;29;20046;-77
2023/11/13 04:16:02;;;;;;;5.50;4.22;;;8.30;78.70;;;;;;4916592;29;20390;-77
2023/11/13 04:18:29;;;;;;;5.68;4.00;;;8.30;78.70;;;;;;4917634;29;20181;-77
2023/11/13 04:20:55;;;;;;;5.68;4.40;;;8.30;78.70;;;;;;4917280;29;20035;-77
2023/11/13 04:23:22;;;;;;;4.95;3.88;;;8.30;78.70;;;;;;4900852;29;20145;-77
2023/11/13 04:25:49;;;;;;;5.18;4.18;;;8.30;78.70;;;;;;4885483;29;20040;-77
2023/11/13 04:28:15;;;;;;;5.47;4.15;;;8.30;78.70;;;;;;4884778;29;20511;-78
2023/11/13 04:30:41;;;;;;;5.10;3.78;;;8.30;78.70;;;;;;4915878;29;20045;-77
2023/11/13 04:33:07;;;;;;;6.10;3.92;;;8.40;78.70;;;;;;4900119;29;20594;-77
2023/11/13 04:35:33;;;;;;;4.65;3.90;;;8.40;78.70;;;;;;4884570;29;20032;-77
2023/11/13 04:37:58;;;;;;;5.15;4.05;;;8.40;78.70;;;;;;4917540;29;20454;-78
2023/11/13 04:40:26;;;;;;;6.97;4.40;;;8.40;78.70;;;;;;4917143;29;20043;-77
2023/11/13 04:42:52;;;;;;;6.10;4.43;;;8.30;79.30;;;;;;4916539;29;20117;-77
2023/11/13 04:45:18;;;;;;;5.78;4.47;;;8.40;78.70;;;;;;4875870;29;20032;-77
2023/11/13 04:47:43;;;;;;;5.32;4.05;;;8.40;78.70;;;;;;4919775;29;20492;-78
2023/11/13 04:50:09;;;;;;;5.88;4.10;;;8.40;78.70;;;;;;4921278;29;20466;-77
2023/11/13 04:52:35;;;;;;;5.40;4.35;;;8.40;78.70;;;;;;4888562;29;20040;-77
2023/11/13 04:55:01;;;;;;;5.75;4.03;;;8.40;78.70;;;;;;4919876;29;20032;-77
2023/11/13 04:57:27;;;;;;;5.00;3.85;;;8.50;78.70;;;;;;4888534;29;20032;-77
2023/11/13 04:59:53;;;;;;;5.18;4.10;;;8.50;78.80;;;;;;4903616;29;20481;-77
2023/11/13 05:02:18;;;;;;;5.78;4.50;;;8.50;78.70;;;;;;4920469;29;20508;-77
2023/11/13 05:04:45;;;;;;;5.47;3.95;;;8.50;78.70;;;;;;4919236;29;20056;-77
2023/11/13 05:07:11;;;;;;;5.15;4.18;;;8.50;78.70;;;;;;4919490;29;20036;-76
2023/11/13 05:09:37;;;;;;;5.47;4.15;;;8.50;78.80;;;;;;4919639;29;20369;-76
2023/11/13 05:12:04;;;;;;;5.30;4.20;;;8.50;78.70;;;;;;4903673;29;20054;-76
2023/11/13 05:14:29;;;;;;;5.63;4.25;;;8.50;78.70;;;;;;4921555;29;20104;-77
2023/11/13 05:16:56;;;;;;;5.13;3.63;;;8.50;78.70;;;;;;4919627;29;20484;-77
2023/11/13 05:19:22;;;;;;;5.82;4.13;;;8.50;78.80;;;;;;4919048;29;20040;-77
2023/11/13 05:21:48;;;;;;;5.97;3.67;;;8.50;78.80;;;;;;4903296;29;20452;-77
2023/11/13 05:24:14;;;;;;;5.38;4.18;;;8.60;78.80;;;;;;4919012;29;20123;-77
2023/11/13 05:26:39;;;;;;;4.88;3.88;;;8.60;78.80;;;;;;4888153;29;20399;-77
2023/11/13 05:29:05;;;;;;;5.30;4.00;;;8.50;78.70;;;;;;4887799;29;20111;-82
2023/11/13 05:31:31;;;;;;;5.53;3.95;;;8.60;78.80;;;;;;4919004;29;20172;-78
2023/11/13 05:33:56;;;;;;;5.28;4.20;;;8.50;78.70;;;;;;4903073;29;20032;-77
2023/11/13 05:36:22;;;;;;;5.57;4.25;;;8.60;78.80;;;;;;4887585;29;20545;-80
2023/11/13 05:38:48;;;;;;;5.55;4.38;;;8.60;78.70;;;;;;4887491;29;20047;-78
2023/11/13 05:41:14;;;;;;;5.53;4.20;;;8.60;78.80;;;;;;4918695;29;20040;-77
2023/11/13 05:43:39;;;;;;;5.13;4.07;;;8.60;78.80;;;;;;4903209;29;20036;-77
2023/11/13 05:46:06;;;;;;;5.15;3.75;;;8.60;78.70;;;;;;4918948;29;20040;-77
2023/11/13 05:48:31;;;;;;;5.15;3.65;;;8.60;78.70;;;;;;4904286;29;20426;-77
2023/11/13 05:50:58;;;;;;;4.97;3.97;;;8.60;78.70;;;;;;4919428;29;20033;-77
2023/11/13 05:53:24;;;;;;;5.50;3.35;;;8.70;78.80;;;;;;4919271;29;20103;-77
2023/11/13 05:55:50;;;;;;;4.90;3.72;;;8.70;78.80;;;;;;4887101;29;20036;-77
2023/11/13 05:58:15;;;;;;;5.80;4.05;;;8.70;78.80;;;;;;4887115;29;20033;-78
2023/11/13 06:00:43;;;;;;;5.50;4.10;;;8.70;78.80;;;;;;4919383;29;20028;-78
2023/11/13 06:03:09;;;;;;;5.10;3.95;;;8.70;78.80;;;;;;4903466;29;20146;-80
2023/11/13 06:05:35;;;;;;;5.00;3.80;;;8.70;78.80;;;;;;4918263;29;20187;-78
2023/11/13 06:08:01;;;;;;;4.20;3.38;;;8.70;78.80;;;;;;4886930;29;20032;-77
2023/11/13 06:10:26;;;;;;;5.05;3.83;;;8.70;78.80;;;;;;4886857;29;20064;-78
2023/11/13 06:12:52;;;;;;;4.93;3.95;;;8.70;78.80;;;;;;4917926;29;20048;-78
2023/11/13 06:15:20;;;;;;;5.25;3.90;;;8.70;78.80;;;;;;4902799;29;20036;-77
2023/11/13 06:17:45;;;;;;;4.90;3.70;;;8.70;78.80;;;;;;4902918;29;20036;-78
2023/11/13 06:20:15;;;;;;;5.43;3.88;;;8.80;78.80;;;;;;4902733;29;20033;-78
2023/11/13 06:22:41;;;;;;;5.85;4.25;;;8.80;78.90;;;;;;4887409;29;20067;-78
2023/11/13 06:25:09;;;;;;;5.43;3.83;;;8.80;78.80;;;;;;4902176;29;20474;-78
2023/11/13 06:27:35;;;;;;;5.32;3.92;;;8.80;78.80;;;;;;4917925;29;20036;-78
2023/11/13 06:30:01;;;;;;;5.50;4.40;;;8.80;78.80;;;;;;4919032;29;20028;-78
2023/11/13 06:32:29;;;;;;;5.45;4.25;;;8.80;78.80;;;;;;4901982;29;20051;-78
2023/11/13 06:34:55;;;;;;;5.03;3.83;;;8.80;78.90;;;;;;4919532;29;20063;-78
2023/11/13 06:37:21;;;;;;;4.65;3.65;;;8.80;78.90;;;;;;4902278;29;20032;-77
2023/11/13 06:39:47;;;;;;;5.18;3.85;;;8.80;78.80;;;;;;4902294;29;20086;-77
2023/11/13 06:42:13;;;;;;;5.57;3.97;;;8.80;78.80;;;;;;4917919;29;20460;-78
2023/11/13 06:44:39;;;;;;;5.88;4.53;;;8.90;78.90;;;;;;4918212;29;20051;-78
2023/11/13 06:47:05;;;;;;;5.18;4.07;;;8.90;78.90;;;;;;4917918;29;20032;-77
2023/11/13 06:49:31;;;;;;;5.28;4.05;;;8.90;78.90;;;;;;4918173;29;20032;-77
2023/11/13 06:51:57;;;;;;;6.75;4.80;;;8.90;78.90;;;;;;4917557;29;20032;-78
2023/11/13 06:54:24;;;;;;;6.10;4.40;;;8.90;78.90;;;;;;4917701;29;20028;-78
2023/11/13 06:56:50;;;;;;;5.55;4.28;;;8.90;78.90;;;;;;4901980;29;20441;-78
2023/11/13 06:59:17;;;;;;;5.55;4.13;;;8.90;78.90;;;;;;4886534;29;20032;-78
2023/11/13 07:01:43;;;;;;;5.57;4.00;;;8.90;78.90;;;;;;4918535;29;20036;-78
2023/11/13 07:04:12;;;;;;;5.60;4.18;;;8.90;78.90;;;;;;4917650;29;20056;-78
2023/11/13 07:06:39;;;;;;;5.82;4.60;;;9.00;78.90;;;;;;4916949;29;20044;-77
2023/11/13 07:09:11;;;;;;;5.75;4.63;;;9.00;78.90;;;;;;4918534;29;20103;-81
2023/11/13 07:11:45;;;;;;;5.35;3.95;;;9.00;78.90;;;;;;4919373;29;20035;-82
2023/11/13 07:14:12;;;;;;;5.00;3.92;;;9.00;79.60;;;;;;4917419;29;20520;-78
2023/11/13 07:16:38;;;;;;;6.18;4.63;;;9.00;78.90;;;;;;4917657;29;20032;-76
2023/11/13 07:19:04;;;;;;;5.88;4.57;;;9.00;78.90;;;;;;4917353;29;20449;-78
2023/11/13 07:21:31;;;;;;;5.05;3.90;;;9.00;78.90;;;;;;4901776;29;20060;-77
2023/11/13 07:24:00;;;;;;;5.85;4.25;;;9.00;78.90;;;;;;4901625;29;20545;-78
2023/11/13 07:26:26;;;;;;;6.13;4.25;;;9.00;78.90;;;;;;4917169;29;20044;-78
2023/11/13 07:28:52;;;;;;;6.18;4.47;;;9.00;78.90;;;;;;4901219;29;20056;-78
2023/11/13 07:31:19;;;;;;;5.28;4.28;;;9.10;78.90;;;;;;4901368;29;20036;-77
2023/11/13 07:33:45;;;;;;;5.57;4.28;;;9.10;78.90;;;;;;4901528;29;20040;-78
2023/11/13 07:36:12;;;;;;;6.18;4.30;;;9.10;78.90;;;;;;4901515;29;20123;-77
2023/11/13 07:38:41;;;;;;;5.55;3.97;;;9.10;78.90;;;;;;4901191;29;20036;-78
2023/11/13 07:41:11;;;;;;;5.50;3.90;;;9.10;78.90;;;;;;4917126;29;20032;-78
2023/11/13 07:43:41;;;;;;;5.75;4.38;;;9.10;78.90;;;;;;4917052;29;20395;-78
2023/11/13 07:46:08;;;;;;;5.80;4.32;;;9.10;78.90;;;;;;4918533;29;20059;-77
2023/11/13 07:48:35;;;;;;;5.85;4.30;;;9.10;78.90;;;;;;4917083;29;20028;-78
2023/11/13 07:51:02;;;;;;;5.60;4.30;;;9.10;78.90;;;;;;4917029;29;20473;-77
2023/11/13 07:53:28;;;;;;;5.28;4.13;;;9.10;78.90;;;;;;4916476;29;20539;-77
2023/11/13 07:55:55;;;;;;;6.50;4.50;;;9.20;78.90;;;;;;4885679;29;20362;-78
2023/11/13 07:58:21;;;;;;;5.32;4.13;;;9.20;78.90;;;;;;4916921;29;20032;-78
2023/11/13 08:00:47;;;;;;;6.53;4.57;;;9.20;78.90;;;;;;4918056;29;20020;-78
2023/11/13 08:03:16;;;;;;;5.53;4.20;;;9.20;78.90;;;;;;4916546;29;20062;-77
2023/11/13 08:05:42;;;;;;;5.38;3.90;;;9.20;78.90;;;;;;4886114;29;20032;-77
2023/11/13 08:08:12;;;;;;;6.05;4.28;;;9.20;78.90;;;;;;4900964;29;20213;-78
2023/11/13 08:10:39;;;;;;;5.40;3.95;;;9.30;79.00;;;;;;4917218;29;20088;-77
2023/11/13 08:13:05;;;;;;;5.15;4.35;;;9.30;79.00;;;;;;4916533;29;20040;-77
2023/11/13 08:15:31;;;;;;;5.40;4.22;;;9.30;78.90;;;;;;4900535;29;20133;-77
2023/11/13 08:17:58;;;;;;;5.82;3.85;;;9.30;78.90;;;;;;4917246;29;20028;-77
2023/11/13 08:20:27;;;;;;;5.32;3.90;;;9.30;79.00;;;;;;4916334;29;20044;-77
2023/11/13 08:22:56;;;;;;;5.55;4.28;;;9.30;78.90;;;;;;4916226;29;20117;-77
2023/11/13 08:25:25;;;;;;;5.43;4.13;;;9.30;78.90;;;;;;4885604;29;20429;-77
2023/11/13 08:27:51;;;;;;;6.07;4.20;;;9.30;79.00;;;;;;4900356;29;20036;-77
2023/11/13 08:30:22;;;;;;;6.20;4.63;;;9.30;78.90;;;;;;4900565;29;20036;-78
2023/11/13 08:32:51;;;;;;;4.95;3.83;;;9.30;79.00;;;;;;4885702;29;20032;-78
2023/11/13 08:35:18;;;;;;;4.70;3.78;;;9.40;79.00;;;;;;4916622;29;20062;-78
2023/11/13 08:37:45;;;;;;;5.40;3.92;;;9.40;79.00;;;;;;4915957;29;20028;-77
2023/11/13 08:40:14;;;;;;;5.63;4.35;;;9.40;79.00;;;;;;4885234;29;20083;-78
2023/11/13 08:42:41;;;;;;;5.80;4.03;;;9.40;79.00;;;;;;4917019;29;20036;-77
2023/11/13 08:45:12;;;;;;;5.00;4.00;;;9.40;79.00;;;;;;4900442;29;20092;-77
2023/11/13 08:47:42;;;;;;;5.53;4.15;;;9.50;79.00;;;;;;4916546;29;20043;-77
2023/11/13 08:50:11;;;;;;;5.95;4.20;;;9.50;79.10;;;;;;4916352;29;20032;-77
2023/11/13 08:52:41;;;;;;;4.97;3.90;;;9.50;79.00;;;;;;4917572;29;20066;-77
2023/11/13 08:55:10;;;;;;;5.22;3.83;;;9.50;79.00;;;;;;4917256;29;20115;-78
2023/11/13 08:57:43;;;;;;;4.63;3.55;;;9.50;79.00;;;;;;4916337;29;20133;-80
2023/11/13 09:00:18;;;;;;;4.60;3.60;;;9.50;79.00;;;;;;4884903;29;20095;-76
2023/11/13 09:02:58;;;;;;;4.78;3.70;;;9.60;79.00;;;;;;4904028;29;20073;-77
2023/11/13 09:05:26;;;;;;;4.70;3.40;;;9.60;79.10;;;;;;4919236;29;20116;-77
2023/11/13 09:07:53;;;;;;;4.85;3.47;;;9.60;79.00;;;;;;4903172;29;20035;-77
2023/11/13 09:10:21;;;;;;;4.72;3.50;;;9.60;79.00;;;;;;4918908;29;20039;-77
2023/11/13 09:12:47;;;;;;;4.45;3.25;;;9.60;79.00;;;;;;4903001;29;20042;-75
2023/11/13 09:15:17;;;;;;;4.72;3.78;;;9.60;79.00;;;;;;4919713;29;20144;-77
2023/11/13 09:17:45;;;;;;;5.80;3.28;;;9.70;79.10;;;;;;4919831;29;20481;-77
2023/11/13 09:20:19;;;;;;;4.80;3.50;;;9.70;79.10;;;;;;4903195;29;20108;-77
2023/11/13 09:22:48;;;;;;;5.82;3.33;;;9.70;79.10;;;;;;4919738;29;20107;-77
2023/11/13 09:25:14;;;;;;;4.65;3.25;;;9.70;79.10;;;;;;4918520;29;20127;-77
2023/11/13 09:27:48;;;;;;;4.75;3.22;;;9.70;79.10;;;;;;4903591;29;20040;-77
2023/11/13 09:30:18;;;;;;;4.78;3.58;;;9.70;79.10;;;;;;4921091;29;20475;-77
2023/11/13 09:32:44;;;;;;;4.28;3.08;;;9.80;79.10;;;;;;4907095;29;20050;-77
2023/11/13 09:35:24;;;;;;;4.57;3.05;;;9.80;79.10;;;;;;4922343;29;20150;-78
2023/11/13 09:37:54;;;;;;;4.15;3.10;;;9.80;79.10;;;;;;4907916;29;20103;-77
2023/11/13 09:40:24;;;;;;;4.70;3.10;;;9.80;79.10;;;;;;4907522;29;20365;-78
2023/11/13 09:42:55;;;;;;;4.20;3.00;;;9.80;79.10;;;;;;4922163;29;20036;-78
2023/11/13 09:45:22;;;;;;;4.68;2.67;;;9.90;79.10;;;;;;4922327;29;20469;-78
2023/11/13 09:47:54;;;;;;;3.42;2.60;;;9.90;79.10;;;;;;4906729;29;20032;-77
2023/11/13 09:50:20;;;;;;;4.30;2.78;;;9.90;79.10;;;;;;4922264;29;20027;-78
2023/11/13 09:52:49;;;;;;;3.75;2.80;;;9.90;79.10;;;;;;4921953;29;20048;-77
2023/11/13 09:55:20;;;;;;;3.67;2.88;;;10.00;79.20;;;;;;4906283;29;20076;-78
2023/11/13 09:57:48;;;;;;;3.03;2.42;;;10.00;79.10;;;;;;4921985;29;20032;-77
2023/11/13 10:00:17;;;;;;;3.10;2.15;;;10.00;79.10;;;;;;4922134;29;20060;-77
2023/11/13 10:02:47;;;;;;;2.83;2.40;;;10.10;79.10;;;;;;4921598;29;20074;-77
2023/11/13 10:05:16;;;;;;;3.40;2.40;;;10.10;79.10;;;;;;4921925;29;20024;-77
2023/11/13 10:07:52;;;;;;;2.58;2.30;;;10.10;79.10;;;;;;4906332;29;20351;-79
2023/11/13 10:10:22;;;;;;;3.63;2.92;;;10.10;79.10;;;;;;4922070;29;20032;-77
2023/11/13 10:12:53;;;;;;;2.72;2.20;;;10.10;79.10;;;;;;4922120;29;20032;-77
2023/11/13 10:15:30;;;;;;;4.75;2.35;;;10.20;79.10;;;;;;4938778;29;20480;-77
2023/11/13 10:17:57;;;;;;;3.53;2.33;;;10.20;79.10;;;;;;4921700;29;20473;-77
2023/11/13 10:20:25;;;;;;;2.67;2.03;;;10.30;79.00;;;;;;4921539;29;20098;-77
2023/11/13 10:23:14;;;;;;;2.53;1.98;;;10.30;79.00;;;;;;4922031;29;20042;-77
2023/11/13 10:25:52;;;;;;;2.58;1.92;;;10.30;79.00;;;;;;4938845;29;20040;-80
2023/11/13 10:28:22;;;;;;;3.30;2.00;;;10.40;79.00;;;;;;4921721;29;20157;-76
2023/11/13 10:30:55;;;;;;;2.78;1.92;;;10.40;78.90;;;;;;4921387;29;20031;-77
2023/11/13 10:33:21;;;;;;;2.15;1.95;;;10.40;78.90;;;;;;4921119;29;20046;-78
2023/11/13 10:35:49;;;;;;;2.92;1.98;;;10.40;78.90;;;;;;4890266;29;20038;-78
2023/11/13 10:38:17;;;;;;;2.50;1.75;;;10.40;78.80;;;;;;4921554;29;20474;-77
2023/11/13 10:40:58;;;;;;;2.50;1.75;;;10.50;78.90;;;;;;4904975;29;20043;-78
2023/11/13 10:43:29;;;;;;;2.13;1.70;;;10.50;78.80;;;;;;4921565;29;20044;-78
2023/11/13 10:45:55;;;;;;;1.90;1.60;;;10.60;78.90;;;;;;4890008;29;20044;-77
2023/11/13 10:48:31;;;;;;;1.88;1.58;;;10.60;78.80;;;;;;4938191;29;20071;-77
2023/11/13 10:51:03;;;;;;;2.90;1.95;;;10.60;78.80;;;;;;4905026;29;20035;-77
2023/11/13 10:53:31;;;;;;;2.13;1.70;;;10.70;78.80;;;;;;4921896;29;20123;-78
2023/11/13 10:55:58;;;;;;;2.17;1.73;;;10.70;78.70;;;;;;4921360;29;20035;-81
2023/11/13 10:58:25;;;;;;;2.20;1.73;;;10.70;78.70;;;;;;4890689;29;20346;-81
2023/11/13 11:00:52;;;;;;;1.67;1.33;;;10.80;78.70;;;;;;4921119;29;20103;-80
2023/11/13 11:03:24;;;;;;;1.60;1.50;;;10.80;78.60;;;;;;4905603;29;20445;-80
2023/11/13 11:05:55;;;;;;;1.83;1.55;;;10.80;78.50;;;;;;4921129;29;20099;-81
2023/11/13 11:08:23;;;;;;;1.55;1.45;;;10.90;78.50;;;;;;4920982;29;20035;-79
2023/11/13 11:10:54;;;;;;;2.20;1.40;;;10.90;78.50;;;;;;4920922;29;20067;-81
2023/11/13 11:13:21;;;;;;;1.33;1.23;;;10.90;78.40;;;;;;4920777;29;20027;-81
2023/11/13 11:16:14;;;;;;;2.17;1.63;;;11.00;78.50;;;;;;4905062;29;20111;-81
2023/11/13 11:18:44;;;;;;;1.70;1.50;;;11.00;78.50;;;;;;4904739;29;20032;-79
2023/11/13 11:21:16;;;;;;;2.08;1.73;;;11.00;78.40;;;;;;4920320;29;20039;-80
2023/11/13 11:24:19;;;;;;;1.30;1.20;;;11.10;78.50;;;;;;4937273;29;20038;-80
2023/11/13 11:26:59;;;;;;;1.75;1.30;;;11.10;78.50;;;;;;4937492;29;20027;-78
2023/11/13 11:29:36;;;;;;;1.35;1.20;;;11.10;78.40;;;;;;4937721;29;20027;-79
2023/11/13 11:32:14;;;;;;;1.40;1.30;;;11.10;78.40;;;;;;4936895;29;20055;-78
2023/11/13 11:34:44;;;;;;;1.42;1.33;;;11.10;78.30;;;;;;4904743;29;20429;-78
2023/11/13 11:37:15;;;;;;;1.65;1.20;;;11.20;78.30;;;;;;4920329;29;20122;-81
2023/11/13 11:39:49;;;;;;;1.40;1.20;;;11.20;78.30;;;;;;4905054;29;20051;-79
2023/11/13 11:42:27;;;;;;;1.73;1.30;;;11.20;78.30;;;;;;4937012;29;20035;-79
2023/11/13 11:44:57;;;;;;;1.48;1.20;;;11.20;78.20;;;;;;4920478;29;20199;-81
2023/11/13 11:47:25;;;;;;;1.73;1.48;;;11.30;78.20;;;;;;4920209;29;20032;-81
2023/11/13 11:50:03;;;;;;;1.35;1.17;;;11.30;78.20;;;;;;4904435;29;20126;-80
2023/11/13 11:52:55;;;;;;;1.38;1.27;;;11.30;78.20;;;;;;4904326;29;20036;-80
2023/11/13 11:55:23;;;;;;;1.70;1.58;;;11.30;78.20;;;;;;4903900;29;20024;-81
2023/11/13 11:57:50;;;;;;;1.67;1.23;;;11.30;78.00;;;;;;4888807;29;20036;-78
2023/11/13 12:00:19;;;;;;;1.00;1.00;;;11.40;78.10;;;;;;4919744;29;20063;-79
2023/11/13 12:02:46;;;;;;;2.13;1.30;;;11.40;78.10;;;;;;4919442;29;20074;-79
2023/11/13 12:05:14;;;;;;;1.10;1.10;;;11.40;78.10;;;;;;4904411;29;20040;-79
2023/11/13 12:07:40;;;;;;;1.40;1.30;;;11.40;78.00;;;;;;4888688;29;20042;-79
2023/11/13 12:10:08;;;;;;;1.30;1.20;;;11.40;78.00;;;;;;4888806;29;20058;-81
2023/11/13 12:12:37;;;;;;;1.33;1.23;;;11.50;78.10;;;;;;4903949;29;20063;-79
2023/11/13 12:15:10;;;;;;;1.30;1.20;;;11.50;78.10;;;;;;4904616;29;20401;-79
2023/11/13 12:17:40;;;;;;;1.27;1.17;;;11.50;78.10;;;;;;4936980;29;20036;-78
2023/11/13 12:20:11;;;;;;;1.20;1.10;;;11.50;78.00;;;;;;4919592;29;20032;-78
2023/11/13 12:22:39;;;;;;;1.42;1.20;;;11.60;78.10;;;;;;4936752;29;20379;-80
2023/11/13 12:25:09;;;;;;;1.85;1.30;;;11.60;78.10;;;;;;4919193;29;20036;-77
2023/11/13 12:27:38;;;;;;;1.33;1.23;;;11.60;78.10;;;;;;4919820;29;20032;-78
2023/11/13 12:30:16;;;;;;;1.45;1.30;;;11.60;78.10;;;;;;4903825;29;20096;-78
2023/11/13 12:32:46;;;;;;;1.30;1.20;;;11.70;78.10;;;;;;4919859;29;20177;-79
2023/11/13 12:35:12;;;;;;;1.80;1.38;;;11.70;78.10;;;;;;4919363;29;20103;-78
2023/11/13 12:37:41;;;;;;;1.60;1.45;;;11.70;78.10;;;;;;4919366;29;20038;-77
2023/11/13 12:40:10;;;;;;;2.03;1.58;;;11.80;78.20;;;;;;4903268;29;20066;-80
2023/11/13 12:42:40;;;;;;;1.45;1.35;;;11.80;78.10;;;;;;4903442;29;20038;-78
2023/11/13 12:45:10;;;;;;;1.88;1.33;;;11.80;78.10;;;;;;4920123;29;20036;-81
2023/11/13 12:47:36;;;;;;;1.90;1.50;;;11.80;78.10;;;;;;4903483;29;20024;-78
2023/11/13 12:50:02;;;;;;;1.70;1.42;;;11.80;78.10;;;;;;4920192;29;20038;-78
2023/11/13 12:52:29;;;;;;;1.70;1.60;;;11.80;78.10;;;;;;4919407;29;20110;-79
2023/11/13 12:54:55;;;;;;;1.60;1.40;;;11.90;78.10;;;;;;4903419;29;20040;-78
2023/11/13 12:57:26;;;;;;;1.98;1.52;;;11.90;78.10;;;;;;4903332;29;20127;-80
2023/11/13 12:59:52;;;;;;;1.70;1.35;;;11.90;78.10;;;;;;4903439;29;20032;-79